sensor_id;sensor_type;location;lat;lon;timestamp;temperature;humidity
27306;DHT22;14792;50.886;6.468;2023-03-23T00:01:25;12.70;99.90
27306;DHT22;14792;50.886;6.468;2023-03-23T00:04:26;12.70;99.90
27306;DHT22;14792;50.886;6.468;2023-03-23T00:07:28;12.70;99.90
27306;DHT22;14792;50.886;6.468;2023-03-23T00:10:29;12.70;99.90
27306;DHT22;14792;50.886;6.468;2023-03-23T00:13:31;12.70;99.90
27306;DHT22;14792;50.886;6.468;2023-03-23T00:16:33;12.70;99.90
27306;DHT22;14792;50.886;6.468;2023-03-23T00:19:34;12.70;99.90
27306;DHT22;14792;50.886;6.468;2023-03-23T00:22:36;12.80;99.90
27306;DHT22;14792;50.886;6.468;2023-03-23T00:25:37;12.70;99.90
27306;DHT22;14792;50.886;6.468;2023-03-23T00:28:39;12.80;99.90
27306;DHT22;14792;50.886;6.468;2023-03-23T00:31:41;12.80;99.90
27306;DHT22;14792;50.886;6.468;2023-03-23T00:34:42;12.80;99.90
27306;DHT22;14792;50.886;6.468;2023-03-23T00:37:43;12.80;99.90
27306;DHT22;14792;50.886;6.468;2023-03-23T00:40:45;12.80;99.90
27306;DHT22;14792;50.886;6.468;2023-03-23T00:43:47;12.70;99.90
27306;DHT22;14792;50.886;6.468;2023-03-23T00:46:49;12.70;99.90
27306;DHT22;14792;50.886;6.468;2023-03-23T00:49:53;12.60;99.90
27306;DHT22;14792;50.886;6.468;2023-03-23T00:52:57;12.60;99.90
27306;DHT22;14792;50.886;6.468;2023-03-23T00:55:59;12.60;99.90
27306;DHT22;14792;50.886;6.468;2023-03-23T00:59:00;12.50;99.90
27306;DHT22;14792;50.886;6.468;2023-03-23T01:02:02;12.50;99.90
27306;DHT22;14792;50.886;6.468;2023-03-23T01:05:03;12.50;99.90
27306;DHT22;14792;50.886;6.468;2023-03-23T01:08:05;12.50;99.90
27306;DHT22;14792;50.886;6.468;2023-03-23T01:11:06;12.50;99.90
27306;DHT22;14792;50.886;6.468;2023-03-23T01:14:09;12.50;99.90
27306;DHT22;14792;50.886;6.468;2023-03-23T01:17:11;12.50;99.90
27306;DHT22;14792;50.886;6.468;2023-03-23T01:20:13;12.40;99.90
27306;DHT22;14792;50.886;6.468;2023-03-23T01:23:14;12.30;99.90
27306;DHT22;14792;50.886;6.468;2023-03-23T01:26:17;12.20;99.90
27306;DHT22;14792;50.886;6.468;2023-03-23T01:29:17;12.20;99.90
27306;DHT22;14792;50.886;6.468;2023-03-23T01:32:19;12.00;99.90
27306;DHT22;14792;50.886;6.468;2023-03-23T01:35:20;12.00;99.90
27306;DHT22;14792;50.886;6.468;2023-03-23T01:38:22;11.90;99.90
27306;DHT22;14792;50.886;6.468;2023-03-23T01:41:23;11.90;99.90
27306;DHT22;14792;50.886;6.468;2023-03-23T01:47:33;11.80;99.90
27306;DHT22;14792;50.886;6.468;2023-03-23T01:50:36;11.80;99.90
27306;DHT22;14792;50.886;6.468;2023-03-23T01:53:40;11.90;99.90
27306;DHT22;14792;50.886;6.468;2023-03-23T01:56:41;11.90;99.90
27306;DHT22;14792;50.886;6.468;2023-03-23T01:59:43;11.90;99.90
27306;DHT22;14792;50.886;6.468;2023-03-23T02:02:44;11.90;99.90
27306;DHT22;14792;50.886;6.468;2023-03-23T02:05:45;11.90;99.90
27306;DHT22;14792;50.886;6.468;2023-03-23T02:08:48;11.90;99.90
27306;DHT22;14792;50.886;6.468;2023-03-23T02:11:48;12.00;99.90
27306;DHT22;14792;50.886;6.468;2023-03-23T02:14:50;11.90;99.90
27306;DHT22;14792;50.886;6.468;2023-03-23T02:17:55;11.90;99.90
27306;DHT22;14792;50.886;6.468;2023-03-23T02:28:31;11.90;99.90
27306;DHT22;14792;50.886;6.468;2023-03-23T02:37:39;12.00;99.90
27306;DHT22;14792;50.886;6.468;2023-03-23T02:40:40;11.90;99.90
27306;DHT22;14792;50.886;6.468;2023-03-23T02:43:42;11.90;99.90
27306;DHT22;14792;50.886;6.468;2023-03-23T02:46:43;11.90;99.90
27306;DHT22;14792;50.886;6.468;2023-03-23T02:49:45;11.90;99.90
27306;DHT22;14792;50.886;6.468;2023-03-23T02:52:46;11.90;99.90
27306;DHT22;14792;50.886;6.468;2023-03-23T02:55:47;11.90;99.90
27306;DHT22;14792;50.886;6.468;2023-03-23T02:58:49;11.90;99.90
27306;DHT22;14792;50.886;6.468;2023-03-23T03:01:58;11.90;99.90
27306;DHT22;14792;50.886;6.468;2023-03-23T03:05:04;12.00;99.90
27306;DHT22;14792;50.886;6.468;2023-03-23T03:11:17;12.00;99.90
27306;DHT22;14792;50.886;6.468;2023-03-23T03:14:26;12.10;99.90
27306;DHT22;14792;50.886;6.468;2023-03-23T03:17:26;12.10;99.90
27306;DHT22;14792;50.886;6.468;2023-03-23T03:20:28;12.00;99.90
27306;DHT22;14792;50.886;6.468;2023-03-23T03:23:29;12.10;99.90
27306;DHT22;14792;50.886;6.468;2023-03-23T03:26:31;12.10;99.90
27306;DHT22;14792;50.886;6.468;2023-03-23T03:29:33;12.10;99.90
27306;DHT22;14792;50.886;6.468;2023-03-23T03:32:36;12.10;99.90
27306;DHT22;14792;50.886;6.468;2023-03-23T03:35:36;12.10;99.90
27306;DHT22;14792;50.886;6.468;2023-03-23T03:38:41;12.10;99.90
27306;DHT22;14792;50.886;6.468;2023-03-23T03:45:29;12.20;99.90
27306;DHT22;14792;50.886;6.468;2023-03-23T03:48:31;12.10;99.90
27306;DHT22;14792;50.886;6.468;2023-03-23T03:51:33;12.10;99.90
27306;DHT22;14792;50.886;6.468;2023-03-23T03:54:34;12.10;99.90
27306;DHT22;14792;50.886;6.468;2023-03-23T03:57:36;12.20;99.90
27306;DHT22;14792;50.886;6.468;2023-03-23T04:00:37;12.10;99.90
27306;DHT22;14792;50.886;6.468;2023-03-23T04:03:39;12.10;99.90
27306;DHT22;14792;50.886;6.468;2023-03-23T04:06:41;12.10;99.90
27306;DHT22;14792;50.886;6.468;2023-03-23T04:09:43;12.10;99.90
27306;DHT22;14792;50.886;6.468;2023-03-23T04:12:44;12.10;99.90
27306;DHT22;14792;50.886;6.468;2023-03-23T04:15:46;12.10;99.90
27306;DHT22;14792;50.886;6.468;2023-03-23T04:18:47;12.20;99.90
27306;DHT22;14792;50.886;6.468;2023-03-23T04:21:49;12.20;99.90
27306;DHT22;14792;50.886;6.468;2023-03-23T04:24:50;12.20;99.90
27306;DHT22;14792;50.886;6.468;2023-03-23T04:27:52;12.20;99.90
27306;DHT22;14792;50.886;6.468;2023-03-23T04:30:54;12.20;99.90
27306;DHT22;14792;50.886;6.468;2023-03-23T04:33:55;12.20;99.90
27306;DHT22;14792;50.886;6.468;2023-03-23T04:36:57;12.10;99.90
27306;DHT22;14792;50.886;6.468;2023-03-23T04:39:58;12.10;99.90
27306;DHT22;14792;50.886;6.468;2023-03-23T04:43:03;12.10;99.90
27306;DHT22;14792;50.886;6.468;2023-03-23T04:46:04;12.10;99.90
27306;DHT22;14792;50.886;6.468;2023-03-23T04:49:06;12.10;99.90
27306;DHT22;14792;50.886;6.468;2023-03-23T04:52:07;12.10;99.90
27306;DHT22;14792;50.886;6.468;2023-03-23T04:55:09;12.20;99.90
27306;DHT22;14792;50.886;6.468;2023-03-23T04:58:11;12.20;99.90
27306;DHT22;14792;50.886;6.468;2023-03-23T05:01:12;12.20;99.90
27306;DHT22;14792;50.886;6.468;2023-03-23T05:04:14;12.20;99.90
27306;DHT22;14792;50.886;6.468;2023-03-23T05:07:15;12.20;99.90
27306;DHT22;14792;50.886;6.468;2023-03-23T05:10:17;12.10;99.90
27306;DHT22;14792;50.886;6.468;2023-03-23T05:13:19;12.10;99.90
27306;DHT22;14792;50.886;6.468;2023-03-23T05:16:20;12.10;99.90
27306;DHT22;14792;50.886;6.468;2023-03-23T05:19:22;12.10;99.90
27306;DHT22;14792;50.886;6.468;2023-03-23T05:22:23;12.10;99.90
27306;DHT22;14792;50.886;6.468;2023-03-23T05:25:25;12.10;99.90
27306;DHT22;14792;50.886;6.468;2023-03-23T05:28:27;12.10;99.90
27306;DHT22;14792;50.886;6.468;2023-03-23T05:31:28;12.00;99.90
27306;DHT22;14792;50.886;6.468;2023-03-23T05:34:30;12.00;99.90
27306;DHT22;14792;50.886;6.468;2023-03-23T05:37:31;12.00;99.90
27306;DHT22;14792;50.886;6.468;2023-03-23T05:40:33;12.00;99.90
27306;DHT22;14792;50.886;6.468;2023-03-23T05:43:34;11.90;99.90
27306;DHT22;14792;50.886;6.468;2023-03-23T05:46:36;12.00;99.90
27306;DHT22;14792;50.886;6.468;2023-03-23T05:49:38;11.90;99.90
27306;DHT22;14792;50.886;6.468;2023-03-23T05:52:39;11.90;99.90
27306;DHT22;14792;50.886;6.468;2023-03-23T05:55:41;11.90;99.90
27306;DHT22;14792;50.886;6.468;2023-03-23T05:58:43;11.90;99.90
27306;DHT22;14792;50.886;6.468;2023-03-23T06:01:44;11.90;99.90
27306;DHT22;14792;50.886;6.468;2023-03-23T06:04:46;11.90;99.90
27306;DHT22;14792;50.886;6.468;2023-03-23T06:07:47;11.90;99.90
27306;DHT22;14792;50.886;6.468;2023-03-23T06:10:49;11.90;99.90
27306;DHT22;14792;50.886;6.468;2023-03-23T06:13:51;11.90;99.90
27306;DHT22;14792;50.886;6.468;2023-03-23T06:16:52;11.90;99.90
27306;DHT22;14792;50.886;6.468;2023-03-23T06:19:54;11.90;99.90
27306;DHT22;14792;50.886;6.468;2023-03-23T06:22:55;11.90;99.90
27306;DHT22;14792;50.886;6.468;2023-03-23T06:25:57;12.00;99.90
27306;DHT22;14792;50.886;6.468;2023-03-23T06:28:58;12.00;99.90
27306;DHT22;14792;50.886;6.468;2023-03-23T06:32:00;12.00;99.90
27306;DHT22;14792;50.886;6.468;2023-03-23T06:35:02;12.00;99.90
27306;DHT22;14792;50.886;6.468;2023-03-23T06:38:03;12.00;99.90
27306;DHT22;14792;50.886;6.468;2023-03-23T06:41:05;12.00;99.90
27306;DHT22;14792;50.886;6.468;2023-03-23T06:44:06;12.10;99.90
27306;DHT22;14792;50.886;6.468;2023-03-23T06:47:08;12.20;99.90
27306;DHT22;14792;50.886;6.468;2023-03-23T06:50:10;12.30;99.90
27306;DHT22;14792;50.886;6.468;2023-03-23T06:53:11;12.30;99.90
27306;DHT22;14792;50.886;6.468;2023-03-23T06:56:13;12.20;99.90
27306;DHT22;14792;50.886;6.468;2023-03-23T06:59:14;12.30;99.90
27306;DHT22;14792;50.886;6.468;2023-03-23T07:02:16;12.30;99.90
27306;DHT22;14792;50.886;6.468;2023-03-23T07:05:18;12.30;99.90
27306;DHT22;14792;50.886;6.468;2023-03-23T07:08:20;12.40;99.90
27306;DHT22;14792;50.886;6.468;2023-03-23T07:11:21;12.40;99.90
27306;DHT22;14792;50.886;6.468;2023-03-23T07:14:22;12.40;99.90
27306;DHT22;14792;50.886;6.468;2023-03-23T07:17:24;12.40;99.90
27306;DHT22;14792;50.886;6.468;2023-03-23T07:20:26;12.40;99.90
27306;DHT22;14792;50.886;6.468;2023-03-23T07:23:28;12.50;99.90
27306;DHT22;14792;50.886;6.468;2023-03-23T07:26:29;12.60;99.90
27306;DHT22;14792;50.886;6.468;2023-03-23T07:29:30;12.60;99.90
27306;DHT22;14792;50.886;6.468;2023-03-23T07:32:32;12.60;99.90
27306;DHT22;14792;50.886;6.468;2023-03-23T07:35:34;12.60;99.90
27306;DHT22;14792;50.886;6.468;2023-03-23T07:38:35;12.60;99.90
27306;DHT22;14792;50.886;6.468;2023-03-23T07:41:37;12.70;99.90
27306;DHT22;14792;50.886;6.468;2023-03-23T07:44:38;12.70;99.90
27306;DHT22;14792;50.886;6.468;2023-03-23T07:47:40;12.80;99.90
27306;DHT22;14792;50.886;6.468;2023-03-23T07:50:41;12.90;99.90
27306;DHT22;14792;50.886;6.468;2023-03-23T07:53:43;12.90;99.90
27306;DHT22;14792;50.886;6.468;2023-03-23T07:56:45;12.90;99.90
27306;DHT22;14792;50.886;6.468;2023-03-23T07:59:46;12.90;99.90
27306;DHT22;14792;50.886;6.468;2023-03-23T08:02:48;12.90;99.90
27306;DHT22;14792;50.886;6.468;2023-03-23T08:05:49;13.00;99.90
27306;DHT22;14792;50.886;6.468;2023-03-23T08:08:51;13.00;99.90
27306;DHT22;14792;50.886;6.468;2023-03-23T08:11:52;13.00;99.90
27306;DHT22;14792;50.886;6.468;2023-03-23T08:14:54;13.10;99.90
27306;DHT22;14792;50.886;6.468;2023-03-23T08:17:56;13.10;99.90
27306;DHT22;14792;50.886;6.468;2023-03-23T08:20:57;13.10;99.90
27306;DHT22;14792;50.886;6.468;2023-03-23T08:23:59;13.20;99.90
27306;DHT22;14792;50.886;6.468;2023-03-23T08:27:00;13.20;99.90
27306;DHT22;14792;50.886;6.468;2023-03-23T08:30:03;13.30;99.90
27306;DHT22;14792;50.886;6.468;2023-03-23T08:33:04;13.30;99.90
27306;DHT22;14792;50.886;6.468;2023-03-23T08:36:06;13.40;99.90
27306;DHT22;14792;50.886;6.468;2023-03-23T08:39:07;13.40;99.90
27306;DHT22;14792;50.886;6.468;2023-03-23T08:42:09;13.40;99.90
27306;DHT22;14792;50.886;6.468;2023-03-23T08:45:12;13.50;99.90
27306;DHT22;14792;50.886;6.468;2023-03-23T08:48:12;13.50;99.90
27306;DHT22;14792;50.886;6.468;2023-03-23T08:51:14;13.60;99.90
27306;DHT22;14792;50.886;6.468;2023-03-23T08:54:15;13.60;99.90
27306;DHT22;14792;50.886;6.468;2023-03-23T08:57:17;13.70;99.90
27306;DHT22;14792;50.886;6.468;2023-03-23T09:00:20;13.70;99.90
27306;DHT22;14792;50.886;6.468;2023-03-23T09:03:21;13.80;99.90
27306;DHT22;14792;50.886;6.468;2023-03-23T09:06:22;13.90;99.90
27306;DHT22;14792;50.886;6.468;2023-03-23T09:09:24;13.90;99.90
27306;DHT22;14792;50.886;6.468;2023-03-23T09:12:26;13.90;99.90
27306;DHT22;14792;50.886;6.468;2023-03-23T09:15:28;13.90;99.90
27306;DHT22;14792;50.886;6.468;2023-03-23T09:18:29;13.90;99.90
27306;DHT22;14792;50.886;6.468;2023-03-23T09:21:31;13.90;99.90
27306;DHT22;14792;50.886;6.468;2023-03-23T09:24:32;13.90;99.90
27306;DHT22;14792;50.886;6.468;2023-03-23T09:27:35;14.00;99.90
27306;DHT22;14792;50.886;6.468;2023-03-23T09:30:36;13.90;99.90
27306;DHT22;14792;50.886;6.468;2023-03-23T09:33:38;13.80;99.90
27306;DHT22;14792;50.886;6.468;2023-03-23T09:36:39;13.80;99.90
27306;DHT22;14792;50.886;6.468;2023-03-23T09:39:41;13.90;99.90
27306;DHT22;14792;50.886;6.468;2023-03-23T09:43:04;14.10;99.90
27306;DHT22;14792;50.886;6.468;2023-03-23T09:46:40;14.10;99.90
27306;DHT22;14792;50.886;6.468;2023-03-23T09:49:26;14.10;99.90
27306;DHT22;14792;50.886;6.468;2023-03-23T09:52:42;14.10;99.90
27306;DHT22;14792;50.886;6.468;2023-03-23T09:55:28;14.20;99.90
27306;DHT22;14792;50.886;6.468;2023-03-23T09:58:31;14.20;99.90
27306;DHT22;14792;50.886;6.468;2023-03-23T10:01:54;14.10;99.90
27306;DHT22;14792;50.886;6.468;2023-03-23T10:04:54;13.90;99.90
27306;DHT22;14792;50.886;6.468;2023-03-23T10:07:55;14.10;99.90
27306;DHT22;14792;50.886;6.468;2023-03-23T10:11:02;14.00;99.90
27306;DHT22;14792;50.886;6.468;2023-03-23T10:17:18;14.00;99.90
27306;DHT22;14792;50.886;6.468;2023-03-23T10:20:42;14.20;99.90
27306;DHT22;14792;50.886;6.468;2023-03-23T10:24:00;14.30;99.90
27306;DHT22;14792;50.886;6.468;2023-03-23T10:30:27;14.40;99.90
27306;DHT22;14792;50.886;6.468;2023-03-23T10:33:38;14.30;99.90
27306;DHT22;14792;50.886;6.468;2023-03-23T10:36:41;14.50;99.90
27306;DHT22;14792;50.886;6.468;2023-03-23T10:39:52;14.90;99.90
27306;DHT22;14792;50.886;6.468;2023-03-23T10:42:52;15.10;99.90
27306;DHT22;14792;50.886;6.468;2023-03-23T10:46:05;15.20;99.90
27306;DHT22;14792;50.886;6.468;2023-03-23T10:49:05;15.10;99.90
27306;DHT22;14792;50.886;6.468;2023-03-23T10:52:24;15.00;99.90
27306;DHT22;14792;50.886;6.468;2023-03-23T10:55:20;15.20;99.90
27306;DHT22;14792;50.886;6.468;2023-03-23T11:01:31;15.40;99.90
27306;DHT22;14792;50.886;6.468;2023-03-23T11:04:29;15.30;99.90
27306;DHT22;14792;50.886;6.468;2023-03-23T11:07:32;15.70;99.90
27306;DHT22;14792;50.886;6.468;2023-03-23T11:10:49;15.70;99.90
27306;DHT22;14792;50.886;6.468;2023-03-23T11:13:44;16.10;99.90
27306;DHT22;14792;50.886;6.468;2023-03-23T11:16:49;15.90;99.90
27306;DHT22;14792;50.886;6.468;2023-03-23T11:19:48;15.80;99.90
27306;DHT22;14792;50.886;6.468;2023-03-23T11:22:49;15.60;99.90
27306;DHT22;14792;50.886;6.468;2023-03-23T11:26:06;15.30;99.90
27306;DHT22;14792;50.886;6.468;2023-03-23T11:29:01;14.90;99.90
27306;DHT22;14792;50.886;6.468;2023-03-23T11:35:03;15.00;99.90
27306;DHT22;14792;50.886;6.468;2023-03-23T11:38:03;15.30;99.90
27306;DHT22;14792;50.886;6.468;2023-03-23T11:41:08;15.60;99.90
27306;DHT22;14792;50.886;6.468;2023-03-23T11:44:10;16.30;99.90
27306;DHT22;14792;50.886;6.468;2023-03-23T11:47:39;16.50;99.90
27306;DHT22;14792;50.886;6.468;2023-03-23T11:50:50;16.50;99.90
27306;DHT22;14792;50.886;6.468;2023-03-23T11:53:52;16.50;99.90
27306;DHT22;14792;50.886;6.468;2023-03-23T11:56:51;16.60;99.90
27306;DHT22;14792;50.886;6.468;2023-03-23T11:59:53;16.70;99.90
27306;DHT22;14792;50.886;6.468;2023-03-23T12:03:07;16.90;99.90
27306;DHT22;14792;50.886;6.468;2023-03-23T12:06:11;17.20;99.90
27306;DHT22;14792;50.886;6.468;2023-03-23T12:09:31;17.20;99.90
27306;DHT22;14792;50.886;6.468;2023-03-23T12:19:01;17.00;99.90
27306;DHT22;14792;50.886;6.468;2023-03-23T12:22:29;16.90;99.90
27306;DHT22;14792;50.886;6.468;2023-03-23T12:28:37;16.30;99.90
27306;DHT22;14792;50.886;6.468;2023-03-23T12:32:45;16.70;99.90
27306;DHT22;14792;50.886;6.468;2023-03-23T12:38:15;16.30;99.90
27306;DHT22;14792;50.886;6.468;2023-03-23T12:41:18;17.10;99.90
27306;DHT22;14792;50.886;6.468;2023-03-23T12:44:20;17.30;99.90
27306;DHT22;14792;50.886;6.468;2023-03-23T12:47:34;16.70;99.90
27306;DHT22;14792;50.886;6.468;2023-03-23T12:50:43;16.30;99.90
27306;DHT22;14792;50.886;6.468;2023-03-23T13:00:23;15.90;99.90
27306;DHT22;14792;50.886;6.468;2023-03-23T13:06:49;15.60;99.90
27306;DHT22;14792;50.886;6.468;2023-03-23T13:12:52;15.50;99.90
27306;DHT22;14792;50.886;6.468;2023-03-23T13:16:03;15.30;99.90
27306;DHT22;14792;50.886;6.468;2023-03-23T13:19:23;14.80;99.90
27306;DHT22;14792;50.886;6.468;2023-03-23T13:25:32;14.00;99.90
27306;DHT22;14792;50.886;6.468;2023-03-23T13:28:34;14.20;99.90
27306;DHT22;14792;50.886;6.468;2023-03-23T13:31:38;14.80;99.90
27306;DHT22;14792;50.886;6.468;2023-03-23T13:34:39;15.60;99.90
27306;DHT22;14792;50.886;6.468;2023-03-23T13:37:49;15.90;99.90
27306;DHT22;14792;50.886;6.468;2023-03-23T13:40:48;16.20;99.90
27306;DHT22;14792;50.886;6.468;2023-03-23T13:43:49;16.40;99.90
27306;DHT22;14792;50.886;6.468;2023-03-23T13:46:55;16.90;99.90
27306;DHT22;14792;50.886;6.468;2023-03-23T13:53:11;16.60;99.90
27306;DHT22;14792;50.886;6.468;2023-03-23T13:56:21;16.40;99.90
27306;DHT22;14792;50.886;6.468;2023-03-23T13:59:35;16.10;99.90
27306;DHT22;14792;50.886;6.468;2023-03-23T14:02:39;16.40;99.90
27306;DHT22;14792;50.886;6.468;2023-03-23T14:06:05;16.20;99.90
27306;DHT22;14792;50.886;6.468;2023-03-23T14:08:53;16.40;99.90
27306;DHT22;14792;50.886;6.468;2023-03-23T14:12:04;16.30;99.90
27306;DHT22;14792;50.886;6.468;2023-03-23T14:15:05;16.00;99.90
27306;DHT22;14792;50.886;6.468;2023-03-23T14:18:11;15.90;99.90
27306;DHT22;14792;50.886;6.468;2023-03-23T14:21:16;15.90;99.90
27306;DHT22;14792;50.886;6.468;2023-03-23T14:24:20;15.70;99.90
27306;DHT22;14792;50.886;6.468;2023-03-23T14:27:22;15.50;99.90
27306;DHT22;14792;50.886;6.468;2023-03-23T14:30:24;15.50;99.90
27306;DHT22;14792;50.886;6.468;2023-03-23T14:33:25;15.50;99.90
27306;DHT22;14792;50.886;6.468;2023-03-23T14:36:28;15.40;99.90
27306;DHT22;14792;50.886;6.468;2023-03-23T14:39:32;15.30;99.90
27306;DHT22;14792;50.886;6.468;2023-03-23T14:42:34;15.40;99.90
27306;DHT22;14792;50.886;6.468;2023-03-23T14:45:35;15.40;99.90
27306;DHT22;14792;50.886;6.468;2023-03-23T14:48:37;15.70;99.90
27306;DHT22;14792;50.886;6.468;2023-03-23T14:51:46;16.00;99.90
27306;DHT22;14792;50.886;6.468;2023-03-23T14:54:40;16.10;99.90
27306;DHT22;14792;50.886;6.468;2023-03-23T14:57:41;16.00;99.90
27306;DHT22;14792;50.886;6.468;2023-03-23T15:00:59;15.90;99.90
27306;DHT22;14792;50.886;6.468;2023-03-23T15:07:08;16.70;99.90
27306;DHT22;14792;50.886;6.468;2023-03-23T15:10:08;16.90;99.90
27306;DHT22;14792;50.886;6.468;2023-03-23T15:13:11;16.90;99.90
27306;DHT22;14792;50.886;6.468;2023-03-23T15:16:18;17.10;99.90
27306;DHT22;14792;50.886;6.468;2023-03-23T15:19:23;16.70;99.90
27306;DHT22;14792;50.886;6.468;2023-03-23T15:22:29;16.40;99.90
27306;DHT22;14792;50.886;6.468;2023-03-23T15:25:31;16.60;99.90
27306;DHT22;14792;50.886;6.468;2023-03-23T15:28:32;16.50;99.90
27306;DHT22;14792;50.886;6.468;2023-03-23T15:31:45;16.60;99.90
27306;DHT22;14792;50.886;6.468;2023-03-23T15:34:36;16.40;99.90
27306;DHT22;14792;50.886;6.468;2023-03-23T15:37:40;16.30;99.90
27306;DHT22;14792;50.886;6.468;2023-03-23T15:40:39;16.20;99.90
27306;DHT22;14792;50.886;6.468;2023-03-23T15:43:51;16.20;99.90
27306;DHT22;14792;50.886;6.468;2023-03-23T15:46:52;16.10;99.90
27306;DHT22;14792;50.886;6.468;2023-03-23T15:50:02;16.00;99.90
27306;DHT22;14792;50.886;6.468;2023-03-23T15:53:00;16.10;99.90
27306;DHT22;14792;50.886;6.468;2023-03-23T15:56:02;16.30;99.90
27306;DHT22;14792;50.886;6.468;2023-03-23T15:59:03;16.30;99.90
27306;DHT22;14792;50.886;6.468;2023-03-23T16:02:05;16.30;99.90
27306;DHT22;14792;50.886;6.468;2023-03-23T16:05:08;16.10;99.90
27306;DHT22;14792;50.886;6.468;2023-03-23T16:08:09;15.90;99.90
27306;DHT22;14792;50.886;6.468;2023-03-23T16:11:13;16.10;99.90
27306;DHT22;14792;50.886;6.468;2023-03-23T16:14:14;16.10;99.90
27306;DHT22;14792;50.886;6.468;2023-03-23T16:17:18;16.10;99.90
27306;DHT22;14792;50.886;6.468;2023-03-23T16:20:19;15.90;99.90
27306;DHT22;14792;50.886;6.468;2023-03-23T16:23:19;15.80;99.90
27306;DHT22;14792;50.886;6.468;2023-03-23T16:26:21;15.60;99.90
27306;DHT22;14792;50.886;6.468;2023-03-23T16:29:24;15.60;99.90
27306;DHT22;14792;50.886;6.468;2023-03-23T16:32:25;15.60;99.90
27306;DHT22;14792;50.886;6.468;2023-03-23T16:35:27;15.50;99.90
27306;DHT22;14792;50.886;6.468;2023-03-23T16:38:29;15.50;99.90
27306;DHT22;14792;50.886;6.468;2023-03-23T16:41:30;15.50;99.90
27306;DHT22;14792;50.886;6.468;2023-03-23T16:44:32;15.40;99.90
27306;DHT22;14792;50.886;6.468;2023-03-23T16:47:34;15.40;99.90
27306;DHT22;14792;50.886;6.468;2023-03-23T16:50:35;15.30;99.90
27306;DHT22;14792;50.886;6.468;2023-03-23T16:53:38;15.30;99.90
27306;DHT22;14792;50.886;6.468;2023-03-23T16:56:38;15.20;99.90
27306;DHT22;14792;50.886;6.468;2023-03-23T16:59:40;15.10;99.90
27306;DHT22;14792;50.886;6.468;2023-03-23T17:02:42;15.10;99.90
27306;DHT22;14792;50.886;6.468;2023-03-23T17:05:44;15.00;99.90
27306;DHT22;14792;50.886;6.468;2023-03-23T17:08:45;15.00;99.90
27306;DHT22;14792;50.886;6.468;2023-03-23T17:11:47;14.90;99.90
27306;DHT22;14792;50.886;6.468;2023-03-23T17:14:48;14.90;99.90
27306;DHT22;14792;50.886;6.468;2023-03-23T17:17:50;14.90;99.90
27306;DHT22;14792;50.886;6.468;2023-03-23T17:20:52;14.80;99.90
27306;DHT22;14792;50.886;6.468;2023-03-23T17:23:53;14.70;99.90
27306;DHT22;14792;50.886;6.468;2023-03-23T17:26:55;14.70;99.90
27306;DHT22;14792;50.886;6.468;2023-03-23T17:29:56;14.60;99.90
27306;DHT22;14792;50.886;6.468;2023-03-23T17:32:58;14.60;99.90
27306;DHT22;14792;50.886;6.468;2023-03-23T17:35:59;14.50;99.90
27306;DHT22;14792;50.886;6.468;2023-03-23T17:39:01;14.50;99.90
27306;DHT22;14792;50.886;6.468;2023-03-23T17:42:03;14.50;99.90
27306;DHT22;14792;50.886;6.468;2023-03-23T17:45:05;14.50;99.90
27306;DHT22;14792;50.886;6.468;2023-03-23T17:48:06;14.40;99.90
27306;DHT22;14792;50.886;6.468;2023-03-23T17:51:07;14.30;99.90
27306;DHT22;14792;50.886;6.468;2023-03-23T17:54:09;14.30;99.90
27306;DHT22;14792;50.886;6.468;2023-03-23T17:57:11;14.30;99.90
27306;DHT22;14792;50.886;6.468;2023-03-23T18:00:13;14.20;99.90
27306;DHT22;14792;50.886;6.468;2023-03-23T18:03:14;14.20;99.90
27306;DHT22;14792;50.886;6.468;2023-03-23T18:06:16;14.10;99.90
27306;DHT22;14792;50.886;6.468;2023-03-23T18:09:18;14.00;99.90
27306;DHT22;14792;50.886;6.468;2023-03-23T18:12:19;14.00;99.90
27306;DHT22;14792;50.886;6.468;2023-03-23T18:15:21;14.00;99.90
27306;DHT22;14792;50.886;6.468;2023-03-23T18:18:23;13.90;99.90
27306;DHT22;14792;50.886;6.468;2023-03-23T18:21:24;13.80;99.90
27306;DHT22;14792;50.886;6.468;2023-03-23T18:24:26;13.80;99.90
27306;DHT22;14792;50.886;6.468;2023-03-23T18:27:27;13.80;99.90
27306;DHT22;14792;50.886;6.468;2023-03-23T18:30:30;13.80;99.90
27306;DHT22;14792;50.886;6.468;2023-03-23T18:33:31;13.90;99.90
27306;DHT22;14792;50.886;6.468;2023-03-23T18:36:32;13.90;99.90
27306;DHT22;14792;50.886;6.468;2023-03-23T18:39:34;13.90;99.90
27306;DHT22;14792;50.886;6.468;2023-03-23T18:42:36;13.90;99.90
27306;DHT22;14792;50.886;6.468;2023-03-23T18:45:37;13.90;99.90
27306;DHT22;14792;50.886;6.468;2023-03-23T18:48:39;14.00;99.90
27306;DHT22;14792;50.886;6.468;2023-03-23T18:51:40;13.90;99.90
27306;DHT22;14792;50.886;6.468;2023-03-23T18:54:42;13.90;99.90
27306;DHT22;14792;50.886;6.468;2023-03-23T18:57:43;13.80;99.90
27306;DHT22;14792;50.886;6.468;2023-03-23T19:00:45;13.80;99.90
27306;DHT22;14792;50.886;6.468;2023-03-23T19:03:47;13.80;99.90
27306;DHT22;14792;50.886;6.468;2023-03-23T19:06:48;13.80;99.90
27306;DHT22;14792;50.886;6.468;2023-03-23T19:09:50;13.80;99.90
27306;DHT22;14792;50.886;6.468;2023-03-23T19:12:51;13.80;99.90
27306;DHT22;14792;50.886;6.468;2023-03-23T19:15:53;13.80;99.90
27306;DHT22;14792;50.886;6.468;2023-03-23T19:18:55;13.80;99.90
27306;DHT22;14792;50.886;6.468;2023-03-23T19:21:56;13.80;99.90
27306;DHT22;14792;50.886;6.468;2023-03-23T19:24:58;13.80;99.90
27306;DHT22;14792;50.886;6.468;2023-03-23T19:27:59;13.80;99.90
27306;DHT22;14792;50.886;6.468;2023-03-23T19:31:01;13.80;99.90
27306;DHT22;14792;50.886;6.468;2023-03-23T19:34:03;13.80;99.90
27306;DHT22;14792;50.886;6.468;2023-03-23T19:37:04;13.80;99.90
27306;DHT22;14792;50.886;6.468;2023-03-23T19:40:06;13.80;99.90
27306;DHT22;14792;50.886;6.468;2023-03-23T19:43:08;13.80;99.90
27306;DHT22;14792;50.886;6.468;2023-03-23T19:46:09;13.80;99.90
27306;DHT22;14792;50.886;6.468;2023-03-23T19:49:11;13.80;99.90
27306;DHT22;14792;50.886;6.468;2023-03-23T19:52:13;13.80;99.90
27306;DHT22;14792;50.886;6.468;2023-03-23T19:55:14;13.70;99.90
27306;DHT22;14792;50.886;6.468;2023-03-23T19:58:16;13.70;99.90
27306;DHT22;14792;50.886;6.468;2023-03-23T20:01:17;13.70;99.90
27306;DHT22;14792;50.886;6.468;2023-03-23T20:04:19;13.70;99.90
27306;DHT22;14792;50.886;6.468;2023-03-23T20:07:20;13.70;99.90
27306;DHT22;14792;50.886;6.468;2023-03-23T20:10:22;13.70;99.90
27306;DHT22;14792;50.886;6.468;2023-03-23T20:13:24;13.70;99.90
27306;DHT22;14792;50.886;6.468;2023-03-23T20:16:25;13.70;99.90
27306;DHT22;14792;50.886;6.468;2023-03-23T20:19:27;13.80;99.90
27306;DHT22;14792;50.886;6.468;2023-03-23T20:22:28;13.80;99.90
27306;DHT22;14792;50.886;6.468;2023-03-23T20:25:30;13.70;99.90